Elisuperficie di emergenza

IT-0588 · Apulia, Włochy

Historia METAR IT-0588 · Elisuperficie di emergenza

Poniżej widzisz METAR-y z ostatnich kilku dni. Wybierz rok, aby przeglądać starsze METAR-y, począwszy od roku 2007.

17 lipca 2024

Czas Kod Pogoda Temp. Widoczność Sufit Wiatr METAR/SPECI
12:50
V
35 °C 10 km+ - 350° 350° 8 kt METAR LIBD 171050Z AUTO 35008KT 310V020 9999 NCD 35/14 Q1014
12:20
V
35 °C 10 km+ - 360° 360° 8 kt METAR LIBD 171020Z AUTO 36008KT 320V030 9999 NCD 35/14 Q1013
11:50
V
35 °C 10 km+ - 350° 350° 8 kt METAR LIBD 170950Z AUTO 35008KT 310V040 9999 NCD 35/14 Q1013
11:20
V
35 °C 10 km+ - 340° 340° 8 kt METAR LIBD 170920Z AUTO 34008KT 300V030 9999 NCD 35/15 Q1013
10:50
V
36 °C 10 km+ - 330° 330° 8 kt METAR LIBD 170850Z AUTO 33008KT 290V040 9999 NCD 36/14 Q1013
10:20
V
36 °C 10 km+ - 320° 320° 8 kt METAR LIBD 170820Z AUTO 32008KT 280V010 9999 NCD 36/14 Q1013
09:50
V
36 °C 10 km+ - 320° 320° 7 kt METAR LIBD 170750Z AUTO 32007KT 270V010 9999 NCD 36/12 Q1013
09:20
V
35 °C 10 km+ - Var Var 6 kt METAR LIBD 170720Z AUTO VRB06KT 9999 NCD 35/13 Q1013
08:50
V
35 °C 10 km+ - 300° 300° 5 kt METAR LIBD 170650Z AUTO 30005KT 270V340 9999 NCD 35/15 Q1013
08:20
V
33 °C 10 km+ - 290° 290° 7 kt METAR LIBD 170620Z AUTO 29007KT 260V320 9999 NCD 33/15 Q1013
07:50
V
31 °C 10 km+ - 300° 300° 5 kt METAR LIBD 170550Z AUTO 30005KT 270V340 9999 NCD 31/16 Q1012
07:20
V
30 °C 10 km+ - 280° 280° 3 kt METAR LIBD 170520Z AUTO 28003KT 230V310 9999 NCD 30/15 Q1012
06:50
V
27 °C 10 km+ - 290° 290° 2 kt METAR LIBD 170450Z 29002KT CAVOK 27/14 Q1012
06:20
V
27 °C 10 km+ - 260° 260° 5 kt METAR LIBD 170420Z 26005KT CAVOK 27/14 Q1012
05:50
V
27 °C 10 km+ - 260° 260° 5 kt METAR LIBD 170350Z 26005KT CAVOK 27/14 Q1012
04:50
V
24 °C 10 km+ - 260° 260° 6 kt METAR LIBD 170250Z 26006KT CAVOK 24/13 Q1011
04:20
V
24 °C 10 km+ - 240° 240° 5 kt METAR LIBD 170220Z 24005KT CAVOK 24/12 Q1011
03:20
V
24 °C 10 km+ - 250° 250° 4 kt METAR LIBD 170120Z 25004KT CAVOK 24/13 Q1011
02:50
V
25 °C 10 km+ - 220° 220° 4 kt METAR LIBD 170050Z 22004KT CAVOK 25/13 Q1012
02:20
V
26 °C 10 km+ - 210° 210° 5 kt METAR LIBD 170020Z 21005KT CAVOK 26/13 Q1012
01:50
V
26 °C 10 km+ - 210° 210° 4 kt METAR LIBD 162350Z 21004KT CAVOK 26/13 Q1012
01:20
V
27 °C 10 km+ - 190° 190° 3 kt METAR LIBD 162320Z 19003KT CAVOK 27/13 Q1012
00:50
V
27 °C 10 km+ - 240° 240° 6 kt METAR LIBD 162250Z 24006KT CAVOK 27/13 Q1012
00:20
V
27 °C 10 km+ - 220° 220° 6 kt METAR LIBD 162220Z 22006KT CAVOK 27/13 Q1012

16 lipca 2024

Czas Kod Pogoda Temp. Widoczność Sufit Wiatr METAR/SPECI
23:50
V
27 °C 10 km+ - 230° 230° 7 kt METAR LIBD 162150Z 23007KT CAVOK 27/13 Q1012
23:20
V
26 °C 10 km+ - 230° 230° 6 kt METAR LIBD 162120Z 23006KT CAVOK 26/14 Q1012
22:50
V
27 °C 10 km+ - 220° 220° 5 kt METAR LIBD 162050Z 22005KT CAVOK 27/14 Q1011
22:20
V
27 °C 10 km+ - 240° 240° 4 kt METAR LIBD 162020Z 24004KT CAVOK 27/14 Q1011
21:50
V
29 °C 10 km+ - 220° 220° 3 kt METAR LIBD 161950Z 22003KT 190V250 CAVOK 29/14 Q1011
21:20
V
30 °C 10 km+ - 240° 240° 3 kt METAR LIBD 161920Z 24003KT CAVOK 30/14 Q1011
20:50
V
30 °C 10 km+ - 280° 280° 3 kt METAR LIBD 161850Z 28003KT CAVOK 30/15 Q1011
20:20
V
31 °C 10 km+ - 350° 350° 2 kt METAR LIBD 161820Z 35002KT CAVOK 31/15 Q1011
19:50
V
32 °C 10 km+ - 310° 310° 3 kt METAR LIBD 161750Z 31003KT 290V350 CAVOK 32/14 Q1011
19:20
V
32 °C 10 km+ - 040° 040° 3 kt METAR LIBD 161720Z 04003KT 010V080 CAVOK 32/15 Q1011
18:50
V
32 °C 10 km+ - 010° 010° 4 kt METAR LIBD 161650Z 01004KT 320V060 CAVOK 32/15 Q1011
18:20
V
33 °C 10 km+ - 350° 350° 5 kt METAR LIBD 161620Z 35005KT 320V040 CAVOK 33/15 Q1011
17:50
V
33 °C 10 km+ - 360° 360° 5 kt METAR LIBD 161550Z 36005KT 320V040 CAVOK 33/15 Q1011
17:20
V
33 °C 10 km+ - 020° 020° 6 kt METAR LIBD 161520Z 02006KT 330V060 CAVOK 33/16 Q1011
16:50
V
33 °C 10 km+ - 030° 030° 6 kt METAR LIBD 161450Z 03006KT 330V060 CAVOK 33/18 Q1011
16:20
V
33 °C 10 km+ - 020° 020° 8 kt METAR LIBD 161420Z 02008KT 350V050 CAVOK 33/16 Q1011
15:50
V
34 °C 10 km+ - 010° 010° 8 kt METAR LIBD 161350Z 01008KT 340V050 CAVOK 34/16 Q1011
15:20
V
35 °C 10 km+ - 030° 030° 7 kt METAR LIBD 161320Z 03007KT 350V070 CAVOK 35/15 Q1011
14:50
V
34 °C 10 km+ - 030° 030° 8 kt METAR LIBD 161250Z 03008KT 360V070 CAVOK 34/15 Q1011
14:20
V
34 °C 10 km+ - 020° 020° 8 kt METAR LIBD 161220Z 02008KT 330V040 CAVOK 34/16 Q1011
13:50
V
34 °C 10 km+ - 010° 010° 9 kt METAR LIBD 161150Z 01009KT CAVOK 34/14 Q1011
13:20
V
34 °C 10 km+ - 010° 010° 7 kt METAR LIBD 161120Z 01007KT 330V050 CAVOK 34/14 Q1012
12:50
V
34 °C 10 km+ - 020° 020° 8 kt METAR LIBD 161050Z 02008KT 350V050 CAVOK 34/14 Q1012
12:20
V
34 °C 10 km+ - 360° 360° 7 kt METAR LIBD 161020Z 36007KT 310V040 CAVOK 34/14 Q1012
11:50
V
34 °C 10 km+ - 360° 360° 7 kt METAR LIBD 160950Z 36007KT 300V030 CAVOK 34/15 Q1012
11:20
V
33 °C 10 km+ - 360° 360° 8 kt METAR LIBD 160920Z 36008KT 330V030 CAVOK 33/15 Q1012
10:50
V
34 °C 10 km+ - 350° 350° 7 kt METAR LIBD 160850Z 35007KT 310V060 CAVOK 34/14 Q1012
10:20
V
34 °C 10 km+ - 330° 330° 6 kt METAR LIBD 160820Z 33006KT 290V010 CAVOK 34/14 Q1012
09:50
V
33 °C 10 km+ - 320° 320° 5 kt METAR LIBD 160750Z 32005KT 280V040 CAVOK 33/14 Q1012
09:20
V
33 °C 10 km+ - 340° 340° 5 kt METAR LIBD 160720Z 34005KT 290V020 CAVOK 33/15 Q1012
08:50
V
32 °C 10 km+ - 320° 320° 3 kt METAR LIBD 160650Z 32003KT 270V030 CAVOK 32/15 Q1012
08:20
V
31 °C 10 km+ - 270° 270° 4 kt METAR LIBD 160620Z 27004KT 230V310 CAVOK 31/16 Q1012
07:50
V
30 °C 10 km+ - 270° 270° 4 kt METAR LIBD 160550Z 27004KT 240V330 CAVOK 30/16 Q1011
07:20
V
28 °C 10 km+ - 260° 260° 5 kt METAR LIBD 160520Z 26005KT CAVOK 28/16 Q1011
06:50
V
27 °C 10 km+ - 260° 260° 5 kt METAR LIBD 160450Z 26005KT CAVOK 27/16 Q1011
06:20
V
23 °C 10 km+ - 220° 220° 4 kt METAR LIBD 160420Z 22004KT CAVOK 23/13 Q1011
05:50
V
23 °C 10 km+ - 210° 210° 5 kt METAR LIBD 160350Z 21005KT CAVOK 23/12 Q1011
05:20
V
23 °C 10 km+ - 210° 210° 4 kt METAR LIBD 160320Z 21004KT CAVOK 23/13 Q1011
04:50
V
23 °C 10 km+ - 250° 250° 5 kt METAR LIBD 160250Z 25005KT CAVOK 23/12 Q1011
04:20
V
25 °C 10 km+ - 290° 290° 5 kt METAR LIBD 160220Z 29005KT CAVOK 25/13 Q1011
03:50
V
24 °C 10 km+ - 310° 310° 6 kt METAR LIBD 160150Z 31006KT 250V340 CAVOK 24/13 Q1011
03:20
V
25 °C 10 km+ - 200° 200° 6 kt METAR LIBD 160120Z 20006KT CAVOK 25/12 Q1010
02:50
V
25 °C 10 km+ - 190° 190° 3 kt METAR LIBD 160050Z 19003KT 170V230 CAVOK 25/13 Q1011
02:20
V
25 °C 10 km+ - 210° 210° 4 kt METAR LIBD 160020Z 21004KT CAVOK 25/13 Q1011
01:50
V
25 °C 10 km+ - 210° 210° 5 kt METAR LIBD 152350Z 21005KT CAVOK 25/13 Q1011
01:20
V
25 °C 10 km+ - 200° 200° 4 kt METAR LIBD 152320Z 20004KT CAVOK 25/14 Q1011
00:50
V
27 °C 10 km+ - 260° 260° 4 kt METAR LIBD 152250Z 26004KT CAVOK 27/14 Q1011
00:20
V
27 °C 10 km+ - 260° 260° 5 kt METAR LIBD 152220Z 26005KT CAVOK 27/15 Q1012

15 lipca 2024

Czas Kod Pogoda Temp. Widoczność Sufit Wiatr METAR/SPECI
23:50
V
27 °C 10 km+ - 260° 260° 5 kt METAR LIBD 152150Z 26005KT CAVOK 27/15 Q1012
23:20
V
27 °C 10 km+ - 260° 260° 4 kt METAR LIBD 152120Z 26004KT CAVOK 27/14 Q1011
22:50
V
28 °C 10 km+ - 250° 250° 3 kt METAR LIBD 152050Z 25003KT CAVOK 28/15 Q1011
22:20
V
28 °C 10 km+ - 280° 280° 3 kt METAR LIBD 152020Z 28003KT 250V320 CAVOK 28/15 Q1011
21:50
V
29 °C 10 km+ - Var Var 2 kt METAR LIBD 151950Z VRB02KT CAVOK 29/15 Q1011
21:20
V
30 °C 10 km+ - 290° 290° 2 kt METAR LIBD 151920Z 29002KT CAVOK 30/16 Q1011
20:50
V
31 °C 10 km+ - 200° 200° 3 kt METAR LIBD 151850Z 20003KT CAVOK 31/15 Q1010
20:20
V
32 °C 10 km+ - Var Var 2 kt METAR LIBD 151820Z VRB02KT CAVOK 32/16 Q1010
19:50
V
32 °C 10 km+ - 030° 030° 3 kt METAR LIBD 151750Z 03003KT CAVOK 32/16 Q1010
19:20
V
33 °C 10 km+ - 020° 020° 3 kt METAR LIBD 151720Z 02003KT 330V060 CAVOK 33/16 Q1010
18:50
V
33 °C 10 km+ - 020° 020° 4 kt METAR LIBD 151650Z 02004KT 350V060 CAVOK 33/16 Q1010
18:20
V
33 °C 10 km+ - 020° 020° 5 kt METAR LIBD 151620Z 02005KT 350V050 CAVOK 33/15 Q1010
17:50
V
34 °C 10 km+ - 020° 020° 5 kt METAR LIBD 151550Z 02005KT 340V060 CAVOK 34/16 Q1011
17:20
V
34 °C 10 km+ - 020° 020° 4 kt METAR LIBD 151520Z 02004KT 340V090 CAVOK 34/17 Q1011
16:50
V
34 °C 10 km+ - 030° 030° 6 kt METAR LIBD 151450Z 03006KT 350V080 CAVOK 34/16 Q1011
16:20
V
34 °C 10 km+ - 010° 010° 7 kt METAR LIBD 151420Z 01007KT 330V050 CAVOK 34/16 Q1011
15:50
V
35 °C 10 km+ - 360° 360° 6 kt METAR LIBD 151350Z 36006KT 320V040 CAVOK 35/15 Q1011
15:20
V
35 °C 10 km+ - 350° 350° 7 kt METAR LIBD 151320Z 35007KT 320V020 CAVOK 35/13 Q1011
14:50
V
35 °C 10 km+ - 350° 350° 6 kt METAR LIBD 151250Z 35006KT 310V030 CAVOK 35/13 Q1012
14:20
V
35 °C 10 km+ - 350° 350° 7 kt METAR LIBD 151220Z 35007KT 310V030 CAVOK 35/14 Q1012
13:50
V
34 °C 10 km+ - 360° 360° 8 kt METAR LIBD 151150Z 36008KT CAVOK 34/12 Q1012
13:20
V
35 °C 10 km+ - 360° 360° 8 kt METAR LIBD 151120Z 36008KT 320V040 CAVOK 35/11 Q1012
12:50
V
35 °C 10 km+ - 350° 350° 7 kt METAR LIBD 151050Z 35007KT 300V030 CAVOK 35/11 Q1012
12:20
V
34 °C 10 km+ - 360° 360° 7 kt METAR LIBD 151020Z 36007KT 320V040 CAVOK 34/10 Q1012
11:50
V
34 °C 10 km+ - 350° 350° 8 kt METAR LIBD 150950Z 35008KT 310V020 CAVOK 34/09 Q1012
11:20
V
34 °C 10 km+ - 330° 330° 8 kt METAR LIBD 150920Z 33008KT 290V040 CAVOK 34/09 Q1012
10:50
V
33 °C 10 km+ - 340° 340° 9 kt METAR LIBD 150850Z 34009KT 300V030 CAVOK 33/08 Q1012
10:20
V
34 °C 10 km+ - 330° 330° 8 kt METAR LIBD 150820Z 33008KT 280V010 CAVOK 34/10 Q1012
09:50
V
33 °C 10 km+ - 340° 340° 6 kt METAR LIBD 150750Z 34006KT 300V050 CAVOK 33/12 Q1012
09:20
V
33 °C 10 km+ - 330° 330° 6 kt METAR LIBD 150720Z 33006KT 270V360 CAVOK 33/10 Q1012
08:50
V
33 °C 10 km+ - 320° 320° 6 kt METAR LIBD 150650Z 32006KT 280V020 CAVOK 33/07 Q1012
08:20
V
33 °C 10 km+ - 300° 300° 5 kt METAR LIBD 150620Z 30005KT CAVOK 33/10 Q1012
07:50
V
31 °C 10 km+ - 280° 280° 4 kt METAR LIBD 150550Z 28004KT 260V320 CAVOK 31/11 Q1012
Zgłoś zmianę